Ichikawa, Japan
Current Conditions -  °F | °C
As of 2:00 PM on Tuesday 23 Dec 2014 (Local Time) from RJTT Reporting Station
Few Clouds Few Clouds  
Wind Chill: 50°   Ceiling: Unl
Heat Index: 50°   Visibility: 6mi
Dew Point: 25°   Wind: 6mph
Humidity: 37%   Direction: 130°SE
Pressure: 30.09"   Gusts: NA
Location:  35.72°N, 139.93°E
Report Text: RJTT 230500Z 13005KT 9999 FEW030 10/M04 Q1019 NOSIG
Loading
Personal Weather Stations






























Interactive Weather Map New forecast layout! Learn more

10-Day Weather Forecast

Advertisements
Track Severe Weather on mobile